createdAt,value
2019-05-19T00:01:39.567Z,13.33
2019-05-19T00:04:06.841Z,13.37
2019-05-19T00:06:34.011Z,14.23
2019-05-19T00:09:02.197Z,13.60
2019-05-19T00:11:30.906Z,14.03
2019-05-19T00:13:58.062Z,13.87
2019-05-19T00:16:25.088Z,15.03
2019-05-19T00:18:52.352Z,14.67
2019-05-19T00:21:19.609Z,14.17
2019-05-19T00:23:47.043Z,14.87
2019-05-19T00:26:14.302Z,14.80
2019-05-19T00:28:41.617Z,15.07
2019-05-19T00:31:08.807Z,15.03
2019-05-19T00:33:35.881Z,15.70
2019-05-19T00:36:03.245Z,15.23
2019-05-19T00:38:30.814Z,15.97
2019-05-19T00:40:57.918Z,17.27
2019-05-19T00:43:25.054Z,17.33
2019-05-19T00:45:52.554Z,14.73
2019-05-19T00:48:19.826Z,17.03
2019-05-19T00:50:47.126Z,15.83
2019-05-19T00:53:14.733Z,15.03
2019-05-19T00:55:41.961Z,15.37
2019-05-19T00:58:09.774Z,16.17
2019-05-19T01:00:37.142Z,17.50
2019-05-19T01:03:04.476Z,14.93
2019-05-19T01:05:31.651Z,15.40
2019-05-19T01:07:58.758Z,16.63
2019-05-19T01:10:26.122Z,13.30
2019-05-19T01:12:53.210Z,15.20
2019-05-19T01:15:20.578Z,15.90
2019-05-19T01:17:50.609Z,15.43
2019-05-19T01:20:17.948Z,16.03
2019-05-19T01:22:45.280Z,16.40
2019-05-19T01:25:13.004Z,14.97
2019-05-19T01:27:40.270Z,15.50
2019-05-19T01:30:08.347Z,16.17
2019-05-19T01:32:35.640Z,17.60
2019-05-19T01:35:03.449Z,16.37
2019-05-19T01:37:31.736Z,14.93
2019-05-19T01:39:58.921Z,16.83
2019-05-19T01:42:25.929Z,15.40
2019-05-19T01:44:53.022Z,15.07
2019-05-19T01:47:20.251Z,18.77
2019-05-19T01:49:47.322Z,17.00
2019-05-19T01:52:14.544Z,17.37
2019-05-19T01:54:41.809Z,18.63
2019-05-19T01:57:09.126Z,15.73
2019-05-19T01:59:36.207Z,15.67
2019-05-19T02:02:03.765Z,18.13
2019-05-19T02:04:31.019Z,15.33
2019-05-19T02:06:58.279Z,18.00
2019-05-19T02:09:25.596Z,16.90
2019-05-19T02:11:52.686Z,17.07
2019-05-19T02:14:19.929Z,17.60
2019-05-19T02:16:47.128Z,16.13
2019-05-19T02:19:14.254Z,15.60
2019-05-19T02:21:41.365Z,18.10
2019-05-19T02:24:08.534Z,16.27
2019-05-19T02:26:35.738Z,16.27
2019-05-19T02:29:03.092Z,15.63
2019-05-19T02:31:30.388Z,18.03
2019-05-19T02:33:57.499Z,16.10
2019-05-19T02:36:24.666Z,15.87
2019-05-19T02:38:51.734Z,16.17
2019-05-19T02:41:21.739Z,15.57
2019-05-19T02:43:51.418Z,20.93
2019-05-19T02:46:19.211Z,18.43
2019-05-19T02:48:47.932Z,19.97
2019-05-19T02:51:16.968Z,20.83
2019-05-19T02:53:44.575Z,18.37
2019-05-19T02:56:12.308Z,21.77
2019-05-19T02:58:39.919Z,21.30
2019-05-19T03:01:07.641Z,19.70
2019-05-19T03:03:34.670Z,20.30
2019-05-19T03:06:01.854Z,19.33
2019-05-19T03:08:30.237Z,19.47
2019-05-19T03:10:57.426Z,22.83
2019-05-19T03:13:24.738Z,21.57
2019-05-19T03:15:51.878Z,23.23
2019-05-19T03:18:19.251Z,20.70
2019-05-19T03:20:46.507Z,20.13
2019-05-19T03:23:13.589Z,19.53
2019-05-19T03:25:44.239Z,21.63
2019-05-19T03:28:11.253Z,22.33
2019-05-19T03:30:52.819Z,21.73
2019-05-19T03:33:22.493Z,22.60
2019-05-19T03:35:49.673Z,22.30
2019-05-19T03:38:16.755Z,23.00
2019-05-19T03:40:44.001Z,21.27
2019-05-19T03:43:11.145Z,21.23
2019-05-19T03:45:38.322Z,21.63
2019-05-19T03:48:05.527Z,21.73
2019-05-19T03:50:32.683Z,22.20
2019-05-19T03:52:59.958Z,22.03
2019-05-19T03:55:27.179Z,20.87
2019-05-19T03:57:54.281Z,23.40
2019-05-19T04:00:22.002Z,22.33
2019-05-19T04:02:49.183Z,23.77
2019-05-19T04:05:16.384Z,21.63
2019-05-19T04:07:43.423Z,20.77
2019-05-19T04:10:10.882Z,25.60
2019-05-19T04:12:38.136Z,19.30
2019-05-19T04:15:05.406Z,22.90
2019-05-19T04:17:32.578Z,21.03
2019-05-19T04:20:00.030Z,23.57
2019-05-19T04:22:27.151Z,22.37
2019-05-19T04:24:54.351Z,21.33
2019-05-19T04:27:22.081Z,21.43
2019-05-19T04:29:49.272Z,23.00
2019-05-19T04:32:16.451Z,21.83
2019-05-19T04:34:43.698Z,22.80
2019-05-19T04:37:10.977Z,22.77
2019-05-19T04:39:38.181Z,26.33
2019-05-19T04:42:05.443Z,24.13
2019-05-19T04:44:33.042Z,23.37
2019-05-19T04:47:00.533Z,22.27
2019-05-19T04:49:27.718Z,21.80
2019-05-19T04:52:05.973Z,24.17
2019-05-19T04:54:24.841Z,23.37
2019-05-19T04:56:51.866Z,24.93
2019-05-19T04:59:18.948Z,23.10
2019-05-19T05:01:46.106Z,22.57
2019-05-19T05:04:13.610Z,23.77
2019-05-19T05:06:40.888Z,23.40
2019-05-19T05:09:08.085Z,26.20
2019-05-19T05:11:35.309Z,28.23
2019-05-19T05:14:02.664Z,24.33
2019-05-19T05:16:29.821Z,26.63
2019-05-19T05:18:57.081Z,27.60
2019-05-19T05:21:24.270Z,27.70
2019-05-19T05:23:51.509Z,24.90
2019-05-19T05:26:18.719Z,26.63
2019-05-19T05:28:45.870Z,28.07
2019-05-19T05:31:15.515Z,30.83
2019-05-19T05:33:42.004Z,29.43
2019-05-19T05:36:09.144Z,29.33
2019-05-19T05:38:36.782Z,26.10
2019-05-19T05:41:04.044Z,29.60
2019-05-19T05:43:31.210Z,27.87
2019-05-19T05:45:58.356Z,28.83
2019-05-19T05:48:25.546Z,32.73
2019-05-19T05:50:52.888Z,32.27
2019-05-19T05:53:19.976Z,29.93
2019-05-19T05:55:47.265Z,33.27
2019-05-19T05:58:14.524Z,29.43
2019-05-19T06:00:42.582Z,29.20
2019-05-19T06:03:09.715Z,30.77
2019-05-19T06:05:37.303Z,29.67
2019-05-19T06:08:04.577Z,28.30
2019-05-19T06:10:32.812Z,28.57
2019-05-19T06:12:59.799Z,30.77
2019-05-19T06:15:26.928Z,32.40
2019-05-19T06:17:54.222Z,32.13
2019-05-19T06:20:21.577Z,30.73
2019-05-19T06:22:56.703Z,27.40
2019-05-19T06:25:17.923Z,30.73
2019-05-19T06:27:44.952Z,31.83
2019-05-19T06:30:12.178Z,26.23
2019-05-19T06:32:43.252Z,31.20
2019-05-19T06:35:10.771Z,27.63
2019-05-19T06:37:38.207Z,26.23
2019-05-19T06:40:05.719Z,24.93
2019-05-19T06:42:32.866Z,25.07
2019-05-19T06:45:00.077Z,25.57
2019-05-19T06:47:27.452Z,24.07
2019-05-19T06:49:54.573Z,25.30
2019-05-19T06:52:21.726Z,24.97
2019-05-19T06:54:48.791Z,25.30
2019-05-19T06:57:15.954Z,23.80
2019-05-19T06:59:43.184Z,26.53
2019-05-19T07:02:10.461Z,24.07
2019-05-19T07:04:37.707Z,23.80
2019-05-19T07:07:04.983Z,26.57
2019-05-19T07:09:32.270Z,25.90
2019-05-19T07:11:59.321Z,23.67
2019-05-19T07:14:26.718Z,23.57
2019-05-19T07:16:53.851Z,28.90
2019-05-19T07:19:21.135Z,29.80
2019-05-19T07:21:48.498Z,27.60
2019-05-19T07:24:16.150Z,25.67
2019-05-19T07:26:43.442Z,26.20
2019-05-19T07:29:10.686Z,26.30
2019-05-19T07:31:37.932Z,25.97
2019-05-19T07:34:05.281Z,26.60
2019-05-19T07:36:32.309Z,25.57
2019-05-19T07:38:59.739Z,26.10
2019-05-19T07:41:26.997Z,21.73
2019-05-19T07:43:54.052Z,21.83
2019-05-19T07:46:21.651Z,22.33
2019-05-19T07:48:48.999Z,23.60
2019-05-19T07:51:16.433Z,22.87
2019-05-19T07:53:43.922Z,25.50
2019-05-19T07:56:11.977Z,23.63
2019-05-19T07:58:39.248Z,22.93
2019-05-19T08:01:06.306Z,20.17
2019-05-19T08:03:33.555Z,20.90
2019-05-19T08:06:00.887Z,27.37
2019-05-19T08:08:28.038Z,20.27
2019-05-19T08:10:55.146Z,19.17
2019-05-19T08:13:22.225Z,18.33
2019-05-19T08:15:49.372Z,20.13
2019-05-19T08:18:16.655Z,18.90
2019-05-19T08:20:44.191Z,16.80
2019-05-19T08:23:12.131Z,17.73
2019-05-19T08:25:39.723Z,22.70
2019-05-19T08:28:09.049Z,17.07
2019-05-19T08:30:36.144Z,17.30
2019-05-19T08:33:03.436Z,17.47
2019-05-19T08:35:30.786Z,15.83
2019-05-19T08:37:58.025Z,17.83
2019-05-19T08:40:25.108Z,19.83
2019-05-19T08:42:52.393Z,16.03
2019-05-19T08:45:19.639Z,14.67
2019-05-19T08:47:47.301Z,15.90
2019-05-19T08:50:14.527Z,17.57
2019-05-19T08:52:42.057Z,14.63
2019-05-19T08:55:09.346Z,17.60
2019-05-19T08:57:36.532Z,15.80
2019-05-19T09:00:04.249Z,16.33
2019-05-19T09:02:32.523Z,14.10
2019-05-19T09:04:59.737Z,18.70
2019-05-19T09:07:26.987Z,10.00
2019-05-19T09:09:54.551Z,12.77
2019-05-19T09:12:21.774Z,11.73
2019-05-19T09:14:49.133Z,10.47
2019-05-19T09:17:16.309Z,9.10
2019-05-19T09:19:43.366Z,11.23
2019-05-19T09:22:10.477Z,9.17
2019-05-19T09:24:37.598Z,8.53
2019-05-19T09:27:04.727Z,8.47
2019-05-19T09:29:31.946Z,10.43
2019-05-19T09:31:59.010Z,9.00
2019-05-19T09:34:26.487Z,9.27
2019-05-19T09:36:53.497Z,8.80
2019-05-19T09:39:20.629Z,7.70
2019-05-19T09:41:48.658Z,7.20
2019-05-19T09:44:16.114Z,7.87
2019-05-19T09:46:43.345Z,8.13
2019-05-19T09:49:29.436Z,7.70
2019-05-19T09:51:57.558Z,7.67
2019-05-19T09:54:24.630Z,7.93
2019-05-19T09:56:51.900Z,6.77
2019-05-19T09:59:18.879Z,7.10
2019-05-19T10:01:46.121Z,5.97
2019-05-19T10:04:13.145Z,6.83
2019-05-19T10:06:40.798Z,6.60
2019-05-19T10:09:08.984Z,6.73
2019-05-19T10:12:00.674Z,6.90
2019-05-19T10:14:29.057Z,6.83
2019-05-19T10:16:56.150Z,7.43
2019-05-19T10:19:23.419Z,6.83
2019-05-19T10:21:50.578Z,7.23
2019-05-19T10:24:19.170Z,7.43
2019-05-19T10:26:46.427Z,7.60
2019-05-19T10:29:13.450Z,6.77
2019-05-19T10:31:40.952Z,6.63
2019-05-19T10:34:08.093Z,7.17
2019-05-19T10:36:35.232Z,7.30
2019-05-19T10:39:04.742Z,5.77
2019-05-19T10:41:31.946Z,6.00
2019-05-19T10:44:00.866Z,6.63
2019-05-19T10:46:29.523Z,5.87
2019-05-19T10:48:56.818Z,6.03
2019-05-19T10:51:23.948Z,4.77
2019-05-19T10:53:51.140Z,4.27
2019-05-19T10:56:19.206Z,3.93
2019-05-19T10:58:46.537Z,4.03
2019-05-19T11:01:14.078Z,3.40
2019-05-19T11:03:41.320Z,3.70
2019-05-19T11:06:08.859Z,3.60
2019-05-19T11:08:36.045Z,3.17
2019-05-19T11:11:04.248Z,3.50
2019-05-19T11:13:31.412Z,2.97
2019-05-19T11:15:58.566Z,3.23
2019-05-19T11:18:25.751Z,3.30
2019-05-19T11:20:52.986Z,3.10
2019-05-19T11:23:20.023Z,2.97
2019-05-19T11:25:51.343Z,3.20
2019-05-19T11:28:16.457Z,3.20
2019-05-19T11:30:43.554Z,2.90
2019-05-19T11:33:10.811Z,2.83
2019-05-19T11:35:38.332Z,3.07
2019-05-19T11:38:05.431Z,2.90
2019-05-19T11:40:32.734Z,3.15
2019-05-19T11:42:59.888Z,2.98
2019-05-19T11:45:27.082Z,2.85
2019-05-19T11:47:54.108Z,3.17
2019-05-19T11:50:21.311Z,3.52
2019-05-19T11:52:48.785Z,3.25
2019-05-19T11:55:16.061Z,3.98
2019-05-19T11:57:43.065Z,4.33
2019-05-19T12:00:10.360Z,3.47
2019-05-19T12:02:37.570Z,3.85
2019-05-19T12:05:04.955Z,4.20
2019-05-19T12:07:32.061Z,4.27
2019-05-19T12:09:59.375Z,5.53
2019-05-19T12:12:26.376Z,4.73
2019-05-19T12:14:53.507Z,4.40
2019-05-19T12:17:20.615Z,4.00
2019-05-19T12:19:47.925Z,4.03
2019-05-19T12:22:15.151Z,4.10
2019-05-19T12:24:42.259Z,4.40
2019-05-19T12:27:09.418Z,4.73
2019-05-19T12:29:36.470Z,4.00
2019-05-19T12:32:03.686Z,4.03
2019-05-19T12:34:30.802Z,4.37
2019-05-19T12:36:57.941Z,5.00
2019-05-19T12:39:25.091Z,5.10
2019-05-19T12:41:52.346Z,4.97
2019-05-19T12:44:19.593Z,4.10
2019-05-19T12:46:46.687Z,5.97
2019-05-19T12:49:13.653Z,5.97
2019-05-19T12:51:41.112Z,7.27
2019-05-19T12:54:08.317Z,5.10
2019-05-19T12:56:39.731Z,4.70
2019-05-19T12:59:04.384Z,4.28
2019-05-19T13:01:31.650Z,5.00
2019-05-19T13:03:59.067Z,5.75
2019-05-19T13:06:26.206Z,4.50
2019-05-19T13:08:53.274Z,4.53
2019-05-19T13:11:20.785Z,4.15
2019-05-19T13:13:48.945Z,5.17
2019-05-19T13:16:16.056Z,4.35
2019-05-19T13:18:43.441Z,4.70
2019-05-19T13:21:10.721Z,4.45
2019-05-19T13:23:37.965Z,4.20
2019-05-19T13:26:05.257Z,4.05
2019-05-19T13:28:32.481Z,3.27
2019-05-19T13:30:59.593Z,3.20
2019-05-19T13:33:26.803Z,4.53
2019-05-19T13:35:53.930Z,3.30
2019-05-19T13:38:21.115Z,4.20
2019-05-19T13:40:48.285Z,3.33
2019-05-19T13:43:15.487Z,3.17
2019-05-19T13:45:42.840Z,3.93
2019-05-19T13:48:10.125Z,3.20
2019-05-19T13:50:37.710Z,3.00
2019-05-19T13:53:04.916Z,2.53
2019-05-19T13:55:31.928Z,3.60
2019-05-19T13:57:59.161Z,2.60
2019-05-19T14:00:26.428Z,2.60
2019-05-19T14:02:53.823Z,3.00
2019-05-19T14:05:20.937Z,3.07
2019-05-19T14:07:48.134Z,2.40
2019-05-19T14:10:15.406Z,2.43
2019-05-19T14:12:42.537Z,2.33
2019-05-19T14:15:09.760Z,4.37
2019-05-19T14:17:36.943Z,2.57
2019-05-19T14:20:04.794Z,3.20
2019-05-19T14:22:31.950Z,2.87
2019-05-19T14:24:59.113Z,2.90
2019-05-19T14:27:30.156Z,3.03
2019-05-19T14:29:55.536Z,3.53
2019-05-19T14:32:22.703Z,3.67
2019-05-19T14:34:49.983Z,2.90
2019-05-19T14:37:17.002Z,2.50
2019-05-19T14:39:45.389Z,3.20
2019-05-19T14:42:16.098Z,2.10
2019-05-19T14:44:43.592Z,11.07
2019-05-19T14:47:11.130Z,1.77
2019-05-19T14:49:38.347Z,2.03
2019-05-19T14:52:05.577Z,1.50
2019-05-19T14:54:32.960Z,2.37
2019-05-19T14:57:00.173Z,1.50
2019-05-19T14:59:27.297Z,1.70
2019-05-19T15:01:54.858Z,1.50
2019-05-19T15:04:22.229Z,1.50
2019-05-19T15:06:49.459Z,1.30
2019-05-19T15:09:16.756Z,1.20
2019-05-19T15:11:43.806Z,1.50
2019-05-19T15:14:10.969Z,1.40
2019-05-19T15:16:38.067Z,1.37
2019-05-19T15:19:05.105Z,1.23
2019-05-19T15:21:32.272Z,1.30
2019-05-19T15:23:59.643Z,1.10
2019-05-19T15:26:27.027Z,1.10
2019-05-19T15:28:54.189Z,1.23
2019-05-19T15:31:21.384Z,1.20
2019-05-19T15:33:48.549Z,1.20
2019-05-19T15:36:15.674Z,1.00
2019-05-19T15:38:42.790Z,1.00
2019-05-19T15:41:09.957Z,1.20
2019-05-19T15:43:37.131Z,1.20
2019-05-19T15:46:04.238Z,1.00
2019-05-19T15:48:31.330Z,0.90
2019-05-19T15:50:58.817Z,1.10
2019-05-19T15:53:26.494Z,1.20
2019-05-19T15:55:53.535Z,1.03
2019-05-19T15:58:20.721Z,1.20
2019-05-19T16:00:47.962Z,1.10
2019-05-19T16:03:15.185Z,1.13
2019-05-19T16:05:42.556Z,1.33
2019-05-19T16:08:10.123Z,1.20
2019-05-19T16:10:37.266Z,1.30
2019-05-19T16:13:04.407Z,1.30
2019-05-19T16:15:31.554Z,1.20
2019-05-19T16:17:58.782Z,1.53
2019-05-19T16:20:25.882Z,1.33
2019-05-19T16:22:53.291Z,1.40
2019-05-19T16:25:20.420Z,1.30
2019-05-19T16:27:47.479Z,1.00
2019-05-19T16:30:15.029Z,1.63
2019-05-19T16:32:42.156Z,1.40
2019-05-19T16:35:09.358Z,1.60
2019-05-19T16:37:37.060Z,1.73
2019-05-19T16:40:05.562Z,1.60
2019-05-19T16:42:33.780Z,1.40
2019-05-19T16:45:01.023Z,1.20
2019-05-19T16:47:28.441Z,1.27
2019-05-19T16:49:55.597Z,1.50
2019-05-19T16:52:22.742Z,1.40
2019-05-19T16:55:09.503Z,1.80
2019-05-19T16:57:36.903Z,1.20
2019-05-19T17:00:04.379Z,1.20
2019-05-19T17:02:33.428Z,1.57
2019-05-19T17:05:00.663Z,1.53
2019-05-19T17:07:27.829Z,1.77
2019-05-19T17:09:55.024Z,1.40
2019-05-19T17:12:22.087Z,2.40
2019-05-19T17:14:49.320Z,1.27
2019-05-19T17:17:16.558Z,1.40
2019-05-19T17:19:43.733Z,1.67
2019-05-19T17:22:10.935Z,1.87
2019-05-19T17:24:38.113Z,2.03
2019-05-19T17:27:05.378Z,2.60
2019-05-19T17:29:32.903Z,2.30
2019-05-19T17:32:06.160Z,1.50
2019-05-19T17:34:29.238Z,2.00
2019-05-19T17:36:56.265Z,1.57
2019-05-19T17:39:23.531Z,2.30
2019-05-19T17:41:50.748Z,1.30
2019-05-19T17:44:18.188Z,1.90
2019-05-19T17:46:45.655Z,1.60
2019-05-19T17:49:12.873Z,1.53
2019-05-19T17:51:40.143Z,1.77
2019-05-19T17:54:07.301Z,1.70
2019-05-19T17:56:34.860Z,2.00
2019-05-19T17:59:15.856Z,2.33
2019-05-19T18:01:31.675Z,2.23
2019-05-19T18:03:59.179Z,3.67
2019-05-19T18:06:29.703Z,2.30
2019-05-19T18:08:55.970Z,2.70
2019-05-19T18:11:23.703Z,3.33
2019-05-19T18:13:51.038Z,4.20
2019-05-19T18:16:18.341Z,5.70
2019-05-19T18:18:45.662Z,4.13
2019-05-19T18:21:12.841Z,3.33
2019-05-19T18:23:39.982Z,3.63
2019-05-19T18:26:07.444Z,3.80
2019-05-19T18:28:34.607Z,3.60
2019-05-19T18:31:01.841Z,3.83
2019-05-19T18:33:29.083Z,4.20
2019-05-19T18:35:56.858Z,4.50
2019-05-19T18:38:24.490Z,5.57
2019-05-19T18:40:52.054Z,6.87
2019-05-19T18:43:19.782Z,5.63
2019-05-19T18:45:47.049Z,6.17
2019-05-19T18:48:14.442Z,5.80
2019-05-19T18:50:41.603Z,5.83
2019-05-19T18:53:08.788Z,5.77
2019-05-19T18:55:35.944Z,4.93
2019-05-19T18:58:03.149Z,7.27
2019-05-19T19:00:35.263Z,6.67
2019-05-19T19:03:02.894Z,9.00
2019-05-19T19:05:30.448Z,9.33
2019-05-19T19:07:57.915Z,9.10
2019-05-19T19:10:24.915Z,8.30
2019-05-19T19:12:52.143Z,25.80
2019-05-19T19:15:19.165Z,11.60
2019-05-19T19:17:47.247Z,12.50
2019-05-19T19:20:14.722Z,11.83
2019-05-19T19:22:41.983Z,14.43
2019-05-19T19:25:09.252Z,14.50
2019-05-19T19:27:36.778Z,13.57
2019-05-19T19:30:04.425Z,13.97
2019-05-19T19:32:32.804Z,11.87
2019-05-19T19:34:59.870Z,12.80
2019-05-19T19:37:27.177Z,12.33
2019-05-19T19:39:54.955Z,15.63
2019-05-19T19:42:22.669Z,10.70
2019-05-19T19:44:50.077Z,17.47
2019-05-19T19:47:17.581Z,12.20
2019-05-19T19:49:44.818Z,13.00
2019-05-19T19:52:12.034Z,10.87
2019-05-19T19:54:39.061Z,9.97
2019-05-19T19:57:06.214Z,13.27
2019-05-19T19:59:33.496Z,13.47
2019-05-19T20:02:00.838Z,13.77
2019-05-19T20:04:27.978Z,13.17
2019-05-19T20:06:54.994Z,11.03
2019-05-19T20:09:22.296Z,8.83
2019-05-19T20:11:49.962Z,12.67
2019-05-19T20:14:17.229Z,13.33
2019-05-19T20:16:44.473Z,10.93
2019-05-19T20:19:12.141Z,10.43
2019-05-19T20:21:39.350Z,9.23
2019-05-19T20:24:06.568Z,8.33
2019-05-19T20:26:33.668Z,10.20
2019-05-19T20:29:00.718Z,9.20
2019-05-19T20:31:27.978Z,8.07
2019-05-19T20:33:55.238Z,8.73
2019-05-19T20:36:22.686Z,8.97
2019-05-19T20:38:49.901Z,8.10
2019-05-19T20:41:17.081Z,8.03
2019-05-19T20:43:44.218Z,7.37
2019-05-19T20:46:11.468Z,7.93
2019-05-19T20:48:38.722Z,6.70
2019-05-19T20:51:06.506Z,6.00
2019-05-19T20:53:33.878Z,5.90
2019-05-19T20:56:01.148Z,6.63
2019-05-19T20:58:29.438Z,5.23
2019-05-19T21:00:56.725Z,5.40
2019-05-19T21:03:23.906Z,5.50
2019-05-19T21:05:51.163Z,5.30
2019-05-19T21:08:18.493Z,4.80
2019-05-19T21:10:45.566Z,4.73
2019-05-19T21:13:12.811Z,5.53
2019-05-19T21:15:39.873Z,5.10
2019-05-19T21:18:07.389Z,4.57
2019-05-19T21:20:34.938Z,5.13
2019-05-19T21:23:02.311Z,5.63
2019-05-19T21:25:29.514Z,5.53
2019-05-19T21:27:56.681Z,4.93
2019-05-19T21:30:23.867Z,5.10
2019-05-19T21:32:51.173Z,4.77
2019-05-19T21:35:18.567Z,4.70
2019-05-19T21:37:45.873Z,5.50
2019-05-19T21:40:13.245Z,5.47
2019-05-19T21:42:40.467Z,4.77
2019-05-19T21:45:07.902Z,5.43
2019-05-19T21:47:35.082Z,5.47
2019-05-19T21:50:02.667Z,5.20
2019-05-19T21:52:29.984Z,8.37
2019-05-19T21:54:57.166Z,5.83
2019-05-19T21:57:24.478Z,5.73
2019-05-19T21:59:51.917Z,5.90
2019-05-19T22:02:19.094Z,5.97
2019-05-19T22:04:46.293Z,5.63
2019-05-19T22:07:20.337Z,6.30
2019-05-19T22:09:47.566Z,6.43
2019-05-19T22:12:14.834Z,6.30
2019-05-19T22:14:42.097Z,5.97
2019-05-19T22:17:09.259Z,6.33
2019-05-19T22:19:36.386Z,6.70
2019-05-19T22:22:03.460Z,7.57
2019-05-19T22:24:30.619Z,6.37
2019-05-19T22:26:57.747Z,6.57
2019-05-19T22:29:24.944Z,6.47
2019-05-19T22:31:52.178Z,6.80
2019-05-19T22:34:19.330Z,6.00
2019-05-19T22:36:46.637Z,8.33
2019-05-19T22:39:13.698Z,6.67
2019-05-19T22:41:40.837Z,6.97
2019-05-19T22:44:08.575Z,6.80
2019-05-19T22:46:35.771Z,7.27
2019-05-19T22:49:03.012Z,6.73
2019-05-19T22:51:30.100Z,6.57
2019-05-19T22:53:57.169Z,6.67
2019-05-19T22:56:24.272Z,7.23
2019-05-19T22:58:51.773Z,6.83
2019-05-19T23:01:18.966Z,6.60
2019-05-19T23:03:46.626Z,6.47
2019-05-19T23:06:14.696Z,6.47
2019-05-19T23:08:41.976Z,6.50
2019-05-19T23:11:09.522Z,8.90
2019-05-19T23:13:36.619Z,8.60
2019-05-19T23:16:03.912Z,6.77
2019-05-19T23:18:31.418Z,8.93
2019-05-19T23:20:59.093Z,7.23
2019-05-19T23:23:26.419Z,8.23
2019-05-19T23:25:53.457Z,7.13
2019-05-19T23:28:20.656Z,7.10
2019-05-19T23:30:47.945Z,8.83
2019-05-19T23:33:15.294Z,7.37
2019-05-19T23:35:42.383Z,10.40
2019-05-19T23:38:10.007Z,8.20
2019-05-19T23:40:37.067Z,8.87
2019-05-19T23:43:04.378Z,8.43
2019-05-19T23:45:31.742Z,8.20
2019-05-19T23:47:59.211Z,8.17
2019-05-19T23:50:26.495Z,7.67
2019-05-19T23:52:53.636Z,8.53
2019-05-19T23:55:20.957Z,7.80
2019-05-19T23:57:48.188Z,8.27
